createdAt,value
2022-12-18T00:01:25.416Z,27.23
2022-12-18T00:06:19.246Z,29.43
2022-12-18T00:08:46.172Z,26.13
2022-12-18T00:11:17.490Z,30.40
2022-12-18T00:13:44.292Z,30.60
2022-12-18T00:16:12.450Z,28.23
2022-12-18T00:18:39.668Z,29.47
2022-12-18T00:21:07.805Z,30.83
2022-12-18T00:23:35.615Z,28.97
2022-12-18T00:26:03.463Z,28.97
2022-12-18T00:28:29.923Z,26.60
2022-12-18T00:31:06.930Z,27.07
2022-12-18T00:33:33.535Z,29.83
2022-12-18T00:36:03.337Z,28.90
2022-12-18T00:38:29.936Z,31.20
2022-12-18T00:40:56.719Z,30.77
2022-12-18T00:43:23.157Z,30.43
2022-12-18T00:45:50.171Z,26.67
2022-12-18T00:48:16.713Z,28.63
2022-12-18T00:50:43.122Z,30.10
2022-12-18T00:53:09.514Z,26.00
2022-12-18T00:55:35.989Z,29.10
2022-12-18T00:58:02.451Z,29.27
2022-12-18T01:00:29.102Z,28.67
2022-12-18T01:02:55.653Z,30.53
2022-12-18T01:05:22.107Z,33.67
2022-12-18T01:07:48.528Z,28.37
2022-12-18T01:10:15.093Z,27.97
2022-12-18T01:12:41.609Z,30.97
2022-12-18T01:15:08.689Z,31.17
2022-12-18T01:17:35.080Z,34.17
2022-12-18T01:20:01.666Z,29.93
2022-12-18T01:22:28.095Z,31.10
2022-12-18T01:24:54.515Z,29.60
2022-12-18T01:27:20.992Z,26.93
2022-12-18T01:29:47.429Z,30.77
2022-12-18T01:32:13.865Z,27.60
2022-12-18T01:34:40.550Z,29.97
2022-12-18T01:37:07.171Z,29.40
2022-12-18T01:39:33.846Z,31.60
2022-12-18T01:42:03.926Z,27.07
2022-12-18T01:44:49.195Z,27.93
2022-12-18T01:47:19.219Z,24.67
2022-12-18T01:49:45.692Z,29.23
2022-12-18T01:52:12.180Z,26.90
2022-12-18T01:54:38.787Z,29.53
2022-12-18T01:57:05.186Z,28.03
2022-12-18T01:59:32.805Z,26.07
2022-12-18T02:02:00.396Z,25.13
2022-12-18T02:04:27.886Z,31.90
2022-12-18T02:07:03.520Z,29.07
2022-12-18T02:09:32.783Z,28.57
2022-12-18T02:12:25.444Z,28.00
2022-12-18T02:14:59.813Z,31.13
2022-12-18T02:17:35.305Z,29.87
2022-12-18T02:20:07.894Z,28.27
2022-12-18T02:22:37.115Z,27.97
2022-12-18T02:25:12.563Z,30.37
2022-12-18T02:27:40.247Z,28.87
2022-12-18T02:30:08.064Z,32.13
2022-12-18T02:32:38.931Z,31.50
2022-12-18T02:35:06.592Z,30.77
2022-12-18T02:37:33.445Z,31.90
2022-12-18T02:40:00.033Z,29.03
2022-12-18T02:42:27.122Z,32.57
2022-12-18T02:44:56.638Z,31.73
2022-12-18T02:47:24.179Z,34.10
2022-12-18T02:50:16.675Z,29.03
2022-12-18T02:52:53.157Z,30.73
2022-12-18T02:55:22.561Z,29.10
2022-12-18T02:58:06.061Z,27.50
2022-12-18T03:00:38.461Z,25.67
2022-12-18T03:03:10.984Z,27.63
2022-12-18T03:05:47.071Z,27.90
2022-12-18T03:08:20.105Z,26.47
2022-12-18T03:10:50.580Z,28.20
2022-12-18T03:13:21.473Z,25.15
2022-12-18T03:15:52.633Z,28.90
2022-12-18T03:20:47.087Z,30.40
2022-12-18T03:23:16.626Z,31.97
2022-12-18T03:25:44.814Z,29.63
2022-12-18T03:28:13.863Z,30.63
2022-12-18T03:30:41.161Z,28.70
2022-12-18T03:33:13.019Z,31.97
2022-12-18T03:35:41.092Z,27.97
2022-12-18T03:38:07.924Z,32.33
2022-12-18T03:40:46.674Z,30.97
2022-12-18T03:43:21.595Z,27.90
2022-12-18T03:45:55.457Z,27.70
2022-12-18T03:48:27.902Z,31.40
2022-12-18T03:50:58.994Z,29.53
2022-12-18T03:53:25.693Z,30.95
2022-12-18T03:55:52.801Z,25.27
2022-12-18T03:58:21.217Z,26.87
2022-12-18T04:00:48.885Z,26.67
2022-12-18T04:03:15.838Z,31.03
2022-12-18T04:05:43.213Z,26.37
2022-12-18T04:08:10.089Z,26.20
2022-12-18T04:10:36.913Z,25.17
2022-12-18T04:13:03.559Z,27.20
2022-12-18T04:15:30.160Z,24.90
2022-12-18T04:17:56.616Z,29.17
2022-12-18T04:20:23.066Z,27.37
2022-12-18T04:22:49.490Z,26.77
2022-12-18T04:25:15.935Z,28.17
2022-12-18T04:27:42.360Z,28.00
2022-12-18T04:30:09.257Z,25.63
2022-12-18T04:32:35.970Z,26.27
2022-12-18T04:35:03.042Z,23.03
2022-12-18T04:37:29.459Z,26.40
2022-12-18T04:39:55.845Z,23.80
2022-12-18T04:42:22.245Z,26.33
2022-12-18T04:44:48.677Z,27.97
2022-12-18T04:47:15.103Z,27.77
2022-12-18T04:49:41.592Z,28.13
2022-12-18T04:52:08.167Z,24.13
2022-12-18T04:54:34.550Z,23.63
2022-12-18T04:57:00.948Z,23.30
2022-12-18T04:59:27.340Z,27.90
2022-12-18T05:01:54.274Z,26.87
2022-12-18T05:04:20.823Z,22.87
2022-12-18T05:06:47.311Z,25.10
2022-12-18T05:09:14.679Z,25.23
2022-12-18T05:11:41.153Z,25.47
2022-12-18T05:14:07.587Z,28.33
2022-12-18T05:16:34.044Z,26.17
2022-12-18T05:19:00.484Z,28.40
2022-12-18T05:21:26.981Z,29.57
2022-12-18T05:23:53.393Z,28.60
2022-12-18T05:26:19.925Z,25.57
2022-12-18T05:28:46.878Z,27.97
2022-12-18T05:31:13.907Z,29.43
2022-12-18T05:33:40.676Z,28.77
2022-12-18T05:36:08.529Z,26.90
2022-12-18T05:38:36.392Z,25.70
2022-12-18T05:41:03.261Z,28.73
2022-12-18T05:43:29.800Z,31.60
2022-12-18T05:45:56.745Z,30.37
2022-12-18T05:48:23.243Z,28.87
2022-12-18T05:50:50.645Z,32.30
2022-12-18T05:53:18.222Z,29.00
2022-12-18T05:55:45.002Z,26.13
2022-12-18T05:58:12.420Z,28.20
2022-12-18T06:00:42.849Z,30.60
2022-12-18T06:03:10.941Z,29.85
2022-12-18T06:05:38.384Z,33.47
2022-12-18T06:08:05.400Z,29.77
2022-12-18T06:10:32.041Z,32.00
2022-12-18T06:12:58.464Z,29.87
2022-12-18T06:15:25.445Z,31.07
2022-12-18T06:17:51.897Z,34.17
2022-12-18T06:20:18.456Z,35.03
2022-12-18T06:22:44.896Z,31.43
2022-12-18T06:25:11.303Z,32.53
2022-12-18T06:27:38.240Z,31.03
2022-12-18T06:30:05.161Z,34.10
2022-12-18T06:32:31.763Z,34.40
2022-12-18T06:34:58.409Z,33.27
2022-12-18T06:37:27.549Z,32.90
2022-12-18T06:39:54.377Z,37.33
2022-12-18T06:42:20.784Z,43.10
2022-12-18T06:44:47.255Z,38.43
2022-12-18T06:47:13.732Z,38.53
2022-12-18T06:49:40.194Z,39.87
2022-12-18T06:52:06.593Z,35.93
2022-12-18T06:54:33.014Z,41.00
2022-12-18T06:56:59.389Z,67.47
2022-12-18T06:59:25.864Z,44.03
2022-12-18T07:01:53.103Z,36.03
2022-12-18T07:04:19.667Z,39.60
2022-12-18T07:06:46.064Z,33.50
2022-12-18T07:09:12.449Z,37.30
2022-12-18T07:11:38.840Z,35.07
2022-12-18T07:14:05.301Z,32.00
2022-12-18T07:16:31.873Z,32.00
2022-12-18T07:18:58.313Z,33.50
2022-12-18T07:21:26.098Z,35.30
2022-12-18T07:23:52.692Z,32.30
2022-12-18T07:26:20.581Z,36.80
2022-12-18T07:28:47.492Z,33.13
2022-12-18T07:31:16.523Z,33.43
2022-12-18T07:33:43.401Z,34.33
2022-12-18T07:36:10.765Z,57.73
2022-12-18T07:38:37.520Z,45.33
2022-12-18T07:41:08.507Z,34.73
2022-12-18T07:43:35.401Z,30.58
2022-12-18T07:46:01.915Z,34.30
2022-12-18T07:48:29.117Z,33.60
2022-12-18T07:50:58.957Z,34.00
2022-12-18T07:53:25.515Z,37.03
2022-12-18T07:56:25.339Z,34.20
2022-12-18T07:58:42.588Z,35.80
2022-12-18T08:01:10.572Z,33.37
2022-12-18T08:03:39.180Z,34.27
2022-12-18T08:06:07.541Z,32.90
2022-12-18T08:08:34.455Z,32.10
2022-12-18T08:11:00.917Z,31.43
2022-12-18T08:13:28.002Z,29.80
2022-12-18T08:15:58.220Z,33.33
2022-12-18T08:18:25.172Z,32.70
2022-12-18T08:20:51.747Z,30.50
2022-12-18T08:23:18.205Z,36.00
2022-12-18T08:25:44.982Z,35.57
2022-12-18T08:28:11.523Z,36.07
2022-12-18T08:30:37.992Z,32.20
2022-12-18T08:33:04.533Z,31.10
2022-12-18T08:35:36.338Z,29.70
2022-12-18T08:38:04.627Z,30.00
2022-12-18T08:40:31.061Z,30.03
2022-12-18T08:43:16.194Z,29.60
2022-12-18T08:45:42.779Z,27.73
2022-12-18T08:48:09.273Z,30.07
2022-12-18T08:50:35.658Z,28.53
2022-12-18T08:53:02.032Z,29.30
2022-12-18T08:55:28.561Z,29.20
2022-12-18T08:57:54.976Z,26.33
2022-12-18T09:00:21.591Z,25.97
2022-12-18T09:02:48.177Z,26.20
2022-12-18T09:05:15.821Z,26.57
2022-12-18T09:07:42.332Z,21.50
2022-12-18T09:10:08.815Z,26.77
2022-12-18T09:12:35.210Z,26.23
2022-12-18T09:15:01.728Z,26.77
2022-12-18T09:17:28.145Z,25.77
2022-12-18T09:19:54.526Z,26.90
2022-12-18T09:22:20.900Z,25.83
2022-12-18T09:24:47.380Z,26.03
2022-12-18T09:27:13.796Z,26.67
2022-12-18T09:29:40.669Z,27.83
2022-12-18T09:32:07.132Z,25.87
2022-12-18T09:34:33.905Z,28.07
2022-12-18T09:37:00.342Z,27.77
2022-12-18T09:39:26.788Z,29.23
2022-12-18T09:41:54.704Z,26.20
2022-12-18T09:44:45.102Z,25.57
2022-12-18T09:47:17.812Z,27.75
2022-12-18T09:49:46.118Z,26.03
2022-12-18T09:52:15.495Z,28.27
2022-12-18T09:54:45.178Z,26.50
2022-12-18T09:57:15.700Z,27.77
2022-12-18T09:59:43.527Z,24.38
2022-12-18T10:02:17.619Z,26.87
2022-12-18T10:04:44.974Z,30.07
2022-12-18T10:07:24.792Z,30.57
2022-12-18T10:10:20.664Z,30.20
2022-12-18T10:12:47.087Z,26.17
2022-12-18T10:15:28.775Z,25.07
2022-12-18T10:17:58.886Z,28.00
2022-12-18T10:20:28.417Z,28.57
2022-12-18T10:23:13.507Z,30.20
2022-12-18T10:25:47.161Z,24.97
2022-12-18T10:28:15.468Z,24.83
2022-12-18T10:30:43.173Z,24.90
2022-12-18T10:33:29.724Z,23.93
2022-12-18T10:35:56.352Z,26.77
2022-12-18T10:38:24.520Z,22.80
2022-12-18T10:40:58.184Z,25.13
2022-12-18T10:43:26.276Z,22.30
2022-12-18T10:45:58.893Z,23.43
2022-12-18T10:48:25.557Z,24.23
2022-12-18T10:53:40.571Z,23.43
2022-12-18T10:56:07.617Z,23.23
2022-12-18T10:58:35.671Z,20.77
2022-12-18T11:01:02.105Z,23.00
2022-12-18T11:03:33.276Z,20.93
2022-12-18T11:08:26.057Z,24.83
2022-12-18T11:10:52.532Z,24.57
2022-12-18T11:13:20.546Z,23.83
2022-12-18T11:15:47.647Z,22.63
2022-12-18T11:18:24.374Z,24.33
2022-12-18T11:20:58.751Z,24.17
2022-12-18T11:23:25.969Z,24.43
2022-12-18T11:25:53.419Z,22.43
2022-12-18T11:28:28.710Z,22.03
2022-12-18T11:31:18.683Z,21.90
2022-12-18T11:34:26.830Z,22.37
2022-12-18T11:36:45.466Z,21.17
2022-12-18T11:39:17.668Z,22.40
2022-12-18T11:42:05.803Z,21.43
2022-12-18T11:44:39.172Z,22.20
2022-12-18T11:47:20.433Z,24.13
2022-12-18T11:49:50.092Z,23.53
2022-12-18T11:52:16.491Z,23.13
2022-12-18T11:54:42.972Z,21.27
2022-12-18T11:57:21.134Z,23.30
2022-12-18T11:59:59.584Z,23.43
2022-12-18T12:02:26.082Z,23.90
2022-12-18T12:04:55.711Z,23.40
2022-12-18T12:07:22.146Z,25.47
2022-12-18T12:09:51.641Z,21.53
2022-12-18T12:12:48.701Z,24.90
2022-12-18T12:15:18.888Z,22.47
2022-12-18T12:18:09.601Z,20.60
2022-12-18T12:20:49.973Z,22.77
2022-12-18T12:23:26.155Z,21.17
2022-12-18T12:26:00.441Z,23.83
2022-12-18T12:28:32.612Z,23.40
2022-12-18T12:31:07.645Z,21.73
2022-12-18T12:33:34.707Z,24.67
2022-12-18T12:36:01.138Z,22.00
2022-12-18T12:38:32.063Z,21.50
2022-12-18T12:41:06.256Z,24.08
2022-12-18T12:43:36.719Z,23.63
2022-12-18T12:46:13.695Z,24.33
2022-12-18T12:49:00.133Z,23.13
2022-12-18T12:51:29.095Z,22.60
2022-12-18T12:53:57.102Z,24.37
2022-12-18T12:56:25.534Z,28.07
2022-12-18T12:59:10.405Z,22.73
2022-12-18T13:01:43.011Z,22.27
2022-12-18T13:04:28.198Z,21.80
2022-12-18T13:06:54.603Z,21.57
2022-12-18T13:09:21.141Z,20.50
2022-12-18T13:12:06.913Z,23.23
2022-12-18T13:14:33.374Z,21.40
2022-12-18T13:17:15.770Z,23.57
2022-12-18T13:19:42.255Z,25.17
2022-12-18T13:22:22.405Z,24.93
2022-12-18T13:24:48.934Z,24.30
2022-12-18T13:27:35.005Z,23.90
2022-12-18T13:30:01.841Z,21.73
2022-12-18T13:32:30.372Z,23.10
2022-12-18T13:35:15.787Z,24.50
2022-12-18T13:37:43.890Z,21.30
2022-12-18T13:40:37.077Z,23.10
2022-12-18T13:43:14.638Z,21.67
2022-12-18T13:45:41.152Z,19.73
2022-12-18T13:48:15.692Z,20.47
2022-12-18T13:50:43.028Z,20.50
2022-12-18T13:53:19.128Z,21.30
2022-12-18T13:55:46.266Z,20.23
2022-12-18T13:58:12.912Z,20.83
2022-12-18T14:00:42.940Z,20.00
2022-12-18T14:03:22.493Z,21.98
2022-12-18T14:05:57.054Z,20.30
2022-12-18T14:08:24.244Z,21.77
2022-12-18T14:10:51.954Z,18.90
2022-12-18T14:13:22.526Z,20.93
2022-12-18T14:15:49.869Z,20.02
2022-12-18T14:18:22.498Z,19.50
2022-12-18T14:20:52.942Z,19.77
2022-12-18T14:23:33.765Z,23.17
2022-12-18T14:26:05.366Z,23.07
2022-12-18T14:28:32.410Z,22.47
2022-12-18T14:30:58.903Z,26.03
2022-12-18T14:33:26.505Z,23.00
2022-12-18T14:35:55.738Z,27.17
2022-12-18T14:38:26.093Z,25.77
2022-12-18T14:40:56.774Z,26.60
2022-12-18T14:43:23.701Z,22.42
2022-12-18T14:45:50.840Z,27.73
2022-12-18T14:48:23.542Z,28.07
2022-12-18T14:51:02.265Z,27.37
2022-12-18T14:53:36.541Z,28.30
2022-12-18T14:56:04.563Z,30.57
2022-12-18T14:58:31.260Z,30.13
2022-12-18T15:00:58.162Z,28.40
2022-12-18T15:03:24.706Z,26.60
2022-12-18T15:05:52.645Z,30.17
2022-12-18T15:08:35.089Z,25.97
2022-12-18T15:11:01.509Z,28.00
2022-12-18T15:13:28.442Z,27.03
2022-12-18T15:15:56.260Z,27.67
2022-12-18T15:18:27.265Z,30.83
2022-12-18T15:20:58.603Z,31.60
2022-12-18T15:23:27.098Z,31.17
2022-12-18T15:25:58.431Z,30.97
2022-12-18T15:28:24.924Z,25.67
2022-12-18T15:31:06.676Z,22.57
2022-12-18T15:33:37.898Z,20.87
2022-12-18T15:38:31.099Z,27.43
2022-12-18T15:40:57.725Z,26.00
2022-12-18T15:43:37.757Z,24.87
2022-12-18T15:46:05.793Z,24.57
2022-12-18T15:48:33.464Z,22.93
2022-12-18T15:51:00.294Z,28.13
2022-12-18T15:53:29.328Z,29.50
2022-12-18T15:56:14.275Z,30.30
2022-12-18T15:58:40.924Z,29.80
2022-12-18T16:01:08.610Z,30.87
2022-12-18T16:03:35.171Z,25.23
2022-12-18T16:06:03.052Z,31.70
2022-12-18T16:08:30.972Z,32.80
2022-12-18T16:10:58.006Z,30.53
2022-12-18T16:13:24.805Z,29.80
2022-12-18T16:15:51.328Z,31.33
2022-12-18T16:18:17.936Z,56.27
2022-12-18T16:20:44.483Z,26.87
2022-12-18T16:23:10.938Z,40.97
2022-12-18T16:25:37.322Z,46.97
2022-12-18T16:28:03.915Z,85.67
2022-12-18T16:30:33.838Z,36.80
2022-12-18T16:33:04.987Z,33.43
2022-12-18T16:35:31.501Z,27.90
2022-12-18T16:37:57.924Z,29.13
2022-12-18T16:40:24.412Z,38.87
2022-12-18T16:42:50.829Z,32.53
2022-12-18T16:45:18.380Z,46.47
2022-12-18T16:47:45.167Z,39.93
2022-12-18T16:50:12.021Z,63.10
2022-12-18T16:52:38.637Z,50.27
2022-12-18T16:55:05.473Z,77.00
2022-12-18T16:57:31.933Z,54.73
2022-12-18T17:00:04.377Z,36.20
2022-12-18T17:02:32.922Z,27.77
2022-12-18T17:04:59.696Z,27.53
2022-12-18T17:07:26.855Z,27.87
2022-12-18T17:09:54.187Z,27.37
2022-12-18T17:12:21.131Z,25.03
2022-12-18T17:14:47.587Z,23.23
2022-12-18T17:17:23.148Z,22.57
2022-12-18T17:19:50.644Z,23.57
2022-12-18T17:22:17.277Z,22.63
2022-12-18T17:24:43.744Z,41.03
2022-12-18T17:27:10.167Z,27.10
2022-12-18T17:29:36.671Z,28.10
2022-12-18T17:32:03.253Z,32.40
2022-12-18T17:34:29.771Z,30.40
2022-12-18T17:36:57.160Z,29.13
2022-12-18T17:39:23.647Z,24.50
2022-12-18T17:41:50.225Z,27.47
2022-12-18T17:44:17.175Z,24.70
2022-12-18T17:46:44.184Z,26.73
2022-12-18T17:49:10.801Z,40.77
2022-12-18T17:51:37.420Z,39.47
2022-12-18T17:54:05.342Z,38.03
2022-12-18T17:56:31.999Z,40.83
2022-12-18T17:58:58.807Z,36.00
2022-12-18T18:01:25.632Z,27.87
2022-12-18T18:03:53.841Z,20.23
2022-12-18T18:06:20.691Z,22.77
2022-12-18T18:08:47.189Z,22.53
2022-12-18T18:11:33.824Z,25.27
2022-12-18T18:14:00.734Z,23.43
2022-12-18T18:16:35.228Z,24.00
2022-12-18T18:19:02.332Z,23.53
2022-12-18T18:21:29.121Z,24.30
2022-12-18T18:23:55.851Z,24.20
2022-12-18T18:26:22.471Z,25.17
2022-12-18T18:28:53.904Z,24.97
2022-12-18T18:31:20.972Z,27.27
2022-12-18T18:33:47.777Z,23.93
2022-12-18T18:36:14.602Z,25.73
2022-12-18T18:38:45.395Z,23.43
2022-12-18T18:41:14.913Z,24.90
2022-12-18T18:43:41.686Z,24.13
2022-12-18T18:46:11.248Z,24.37
2022-12-18T18:48:37.820Z,21.93
2022-12-18T18:51:07.382Z,26.30
2022-12-18T18:53:37.632Z,23.20
2022-12-18T18:56:45.396Z,23.95
2022-12-18T18:58:51.898Z,23.10
2022-12-18T19:01:19.470Z,20.70
2022-12-18T19:03:46.574Z,31.47
2022-12-18T19:06:16.055Z,30.33
2022-12-18T19:08:44.088Z,27.05
2022-12-18T19:11:33.151Z,27.50
2022-12-18T19:14:04.516Z,26.13
2022-12-18T19:16:31.460Z,24.57
2022-12-18T19:19:01.819Z,23.00
2022-12-18T19:21:28.937Z,19.00
2022-12-18T19:23:58.049Z,15.53
2022-12-18T19:26:27.802Z,17.97
2022-12-18T19:28:54.676Z,14.90
2022-12-18T19:31:27.085Z,14.17
2022-12-18T19:33:56.496Z,12.47
2022-12-18T19:36:25.140Z,11.90
2022-12-18T19:38:52.270Z,20.00
2022-12-18T19:41:19.460Z,22.60
2022-12-18T19:43:46.583Z,21.73
2022-12-18T19:46:14.666Z,23.20
2022-12-18T19:48:41.686Z,21.37
2022-12-18T19:51:09.356Z,22.27
2022-12-18T19:53:36.007Z,25.33
2022-12-18T19:56:09.544Z,26.97
2022-12-18T19:58:36.043Z,26.80
2022-12-18T20:01:02.656Z,32.00
2022-12-18T20:03:32.885Z,45.53
2022-12-18T20:06:10.531Z,25.10
2022-12-18T20:08:37.584Z,24.97
2022-12-18T20:11:04.391Z,31.73
2022-12-18T20:13:31.154Z,23.27
2022-12-18T20:15:57.668Z,22.77
2022-12-18T20:18:24.153Z,18.33
2022-12-18T20:20:51.297Z,19.63
2022-12-18T20:23:18.685Z,19.73
2022-12-18T20:25:45.328Z,16.80
2022-12-18T20:28:11.937Z,18.57
2022-12-18T20:30:38.455Z,18.27
2022-12-18T20:33:04.882Z,17.77
2022-12-18T20:35:34.572Z,17.70
2022-12-18T20:38:01.218Z,17.37
2022-12-18T20:40:28.503Z,20.80
2022-12-18T20:42:54.946Z,18.50
2022-12-18T20:45:21.441Z,17.70
2022-12-18T20:47:47.863Z,16.77
2022-12-18T20:50:14.300Z,18.77
2022-12-18T20:52:40.807Z,17.53
2022-12-18T20:55:07.386Z,17.93
2022-12-18T20:57:34.373Z,17.40
2022-12-18T21:00:03.426Z,18.97
2022-12-18T21:02:32.114Z,14.30
2022-12-18T21:04:58.593Z,13.37
2022-12-18T21:07:27.400Z,12.10
2022-12-18T21:09:54.098Z,11.93
2022-12-18T21:12:42.585Z,11.67
2022-12-18T21:15:11.953Z,9.27
2022-12-18T21:17:44.477Z,9.00
2022-12-18T21:20:11.894Z,9.90
2022-12-18T21:22:44.305Z,9.33
2022-12-18T21:25:10.787Z,9.93
2022-12-18T21:27:37.320Z,8.30
2022-12-18T21:30:04.028Z,10.13
2022-12-18T21:32:32.251Z,20.60
2022-12-18T21:35:00.198Z,12.47
2022-12-18T21:37:26.720Z,30.77
2022-12-18T21:39:53.161Z,11.17
2022-12-18T21:42:38.267Z,9.93
2022-12-18T21:45:04.970Z,10.40
2022-12-18T21:47:31.373Z,8.53
2022-12-18T21:49:57.793Z,7.90
2022-12-18T21:52:31.249Z,9.33
2022-12-18T21:55:06.151Z,7.63
2022-12-18T21:57:33.011Z,8.70
2022-12-18T21:59:59.914Z,6.20
2022-12-18T22:02:26.683Z,7.50
2022-12-18T22:04:53.241Z,9.07
2022-12-18T22:07:20.463Z,9.80
2022-12-18T22:09:49.291Z,10.60
2022-12-18T22:12:35.189Z,7.60
2022-12-18T22:15:02.586Z,6.03
2022-12-18T22:17:29.007Z,6.00
2022-12-18T22:19:55.766Z,6.23
2022-12-18T22:22:22.606Z,5.67
2022-12-18T22:24:49.089Z,6.43
2022-12-18T22:27:15.525Z,8.57
2022-12-18T22:30:00.611Z,6.40
2022-12-18T22:32:30.656Z,7.10
2022-12-18T22:35:03.106Z,7.38
2022-12-18T22:37:32.672Z,6.23
2022-12-18T22:39:59.079Z,5.70
2022-12-18T22:42:29.208Z,6.97
2022-12-18T22:44:55.652Z,6.37
2022-12-18T22:47:26.508Z,5.60
2022-12-18T22:49:55.849Z,6.47
2022-12-18T22:52:23.439Z,9.07
2022-12-18T22:54:53.169Z,9.60
2022-12-18T22:57:20.031Z,8.40
2022-12-18T22:59:46.477Z,5.50
2022-12-18T23:02:13.053Z,8.57
2022-12-18T23:04:39.788Z,7.30
2022-12-18T23:07:06.765Z,32.93
2022-12-18T23:09:33.588Z,28.30
2022-12-18T23:12:00.599Z,14.40
2022-12-18T23:14:27.951Z,9.90
2022-12-18T23:16:54.378Z,10.33
2022-12-18T23:19:21.142Z,8.47
2022-12-18T23:21:50.187Z,9.20
2022-12-18T23:24:16.593Z,6.13
2022-12-18T23:26:43.233Z,6.40
2022-12-18T23:29:09.880Z,6.93
2022-12-18T23:31:37.398Z,6.13
2022-12-18T23:34:05.173Z,5.80
2022-12-18T23:36:31.892Z,7.50
2022-12-18T23:39:07.352Z,6.87
2022-12-18T23:41:33.806Z,8.13
2022-12-18T23:44:00.670Z,7.37
2022-12-18T23:46:28.911Z,7.13
2022-12-18T23:48:57.213Z,6.27
2022-12-18T23:51:25.543Z,6.70
2022-12-18T23:53:52.433Z,6.27
2022-12-18T23:56:18.942Z,7.43
2022-12-18T23:58:45.478Z,6.40
